Time;durP1;ratioP1;P1;durP2;ratioP2;P2;SDS_P1;SDS_P2;PMS_P1;PMS_P2;Temp;Humidity;BMP_temperature;BMP_pressure;BME280_temperature;BME280_humidity;BME280_pressure;Samples;Min_cycle;Max_cycle;Signal;HPM_P1;HPM_P2
2022/03/24 00:01:22;;;;;;;;;;;5.60;94.40;;;;;;5040075;28;19995;-84
2022/03/24 00:03:55;;;;;;;;;;;5.60;94.30;;;;;;5038879;28;19920;-84
2022/03/24 00:06:24;;;;;;;;;;;5.60;94.60;;;;;;5039593;28;19958;-82
2022/03/24 00:08:52;;;;;;;;;;;5.60;94.70;;;;;;5037904;28;20015;-82
2022/03/24 00:11:20;;;;;;;;;;;5.50;94.80;;;;;;5035739;28;20308;-83
2022/03/24 00:13:48;;;;;;;;;;;5.40;94.70;;;;;;5048667;28;19925;-82
2022/03/24 00:16:15;;;;;;;;;;;5.40;95.10;;;;;;5034494;28;19924;-82
2022/03/24 00:18:42;;;;;;;;;;;5.40;95.30;;;;;;5037333;28;19944;-82
2022/03/24 00:21:08;;;;;;;;;;;5.40;95.40;;;;;;5033694;28;20487;-83
2022/03/24 00:23:35;;;;;;;;;;;5.30;95.50;;;;;;5033688;28;19929;-83
2022/03/24 00:26:03;;;;;;;;;;;5.30;95.50;;;;;;5032171;28;20015;-83
2022/03/24 00:28:31;;;;;;;;;;;5.20;95.60;;;;;;5035584;28;20459;-83
2022/03/24 00:30:58;;;;;;;;;;;5.10;95.70;;;;;;5034252;28;20338;-83
2022/03/24 00:33:25;;;;;;;;;;;5.10;95.90;;;;;;5033604;28;19961;-83
2022/03/24 00:35:52;;;;;;;;;;;5.10;96.00;;;;;;5035147;28;19935;-83
2022/03/24 00:38:19;;;;;;;;;;;5.00;96.10;;;;;;5034477;28;19931;-82
2022/03/24 00:40:45;;;;;;;;;;;5.00;96.20;;;;;;5049676;28;19932;-82
2022/03/24 00:43:16;;;;;;;;;;;5.00;96.30;;;;;;5034468;28;19925;-83
2022/03/24 00:45:43;;;;;;;;;;;5.00;96.60;;;;;;5029102;28;19951;-83
2022/03/24 00:48:10;;;;;;;;;;;5.00;96.70;;;;;;5032725;28;20336;-83
2022/03/24 00:50:37;;;;;;;;;;;5.00;96.90;;;;;;5032873;28;19921;-83
2022/03/24 00:53:04;;;;;;;;;;;4.90;97.00;;;;;;5049581;28;19924;-83
2022/03/24 00:55:31;;;;;;;;;;;4.70;97.00;;;;;;5033756;28;20389;-83
2022/03/24 00:57:58;;;;;;;;;;;4.90;97.10;;;;;;5049350;28;19986;-83
2022/03/24 01:00:27;;;;;;;;;;;4.90;97.20;;;;;;5049616;28;19933;-83
2022/03/24 01:02:56;;;;;;;;;;;4.90;97.40;;;;;;5032722;28;19924;-83
2022/03/24 01:05:23;;;;;;;;;;;4.90;97.40;;;;;;5036990;28;19921;-83
2022/03/24 01:07:50;;;;;;;;;;;5.00;97.60;;;;;;5031358;28;19935;-83
2022/03/24 01:10:18;;;;;;;;;;;4.80;97.60;;;;;;5030764;28;19921;-83
2022/03/24 01:12:45;;;;;;;;;;;4.80;97.70;;;;;;5031227;28;20370;-83
2022/03/24 01:15:14;;;;;;;;;;;4.80;97.80;;;;;;5032289;28;19925;-83
2022/03/24 01:17:42;;;;;;;;;;;4.70;97.80;;;;;;5036834;28;19929;-82
2022/03/24 01:20:10;;;;;;;;;;;4.70;97.90;;;;;;5034617;28;19969;-82
2022/03/24 01:22:37;;;;;;;;;;;4.60;97.90;;;;;;5035808;28;19921;-82
2022/03/24 01:25:06;;;;;;;;;;;4.50;98.00;;;;;;5031575;28;19928;-82
2022/03/24 01:27:34;;;;;;;;;;;4.50;98.10;;;;;;5031852;28;19982;-82
2022/03/24 01:30:01;;;;;;;;;;;4.50;98.20;;;;;;5041528;28;19925;-82
2022/03/24 01:32:28;;;;;;;;;;;4.40;98.40;;;;;;5032973;28;19964;-82
2022/03/24 01:34:56;;;;;;;;;;;4.40;98.50;;;;;;5031742;28;19944;-82
2022/03/24 01:37:24;;;;;;;;;;;4.40;98.60;;;;;;5055456;28;19950;-82
2022/03/24 01:39:51;;;;;;;;;;;4.40;98.70;;;;;;5033094;28;19929;-82
2022/03/24 01:42:18;;;;;;;;;;;4.30;98.80;;;;;;5033684;28;19928;-82
2022/03/24 01:44:46;;;;;;;;;;;4.30;98.90;;;;;;5032523;28;19921;-82
2022/03/24 01:47:13;;;;;;;;;;;4.30;99.00;;;;;;5030687;28;19925;-82
2022/03/24 01:49:41;;;;;;;;;;;5.00;99.80;;;;;;5031449;28;19954;-82
2022/03/24 01:52:11;;;;;;;;;;;4.20;99.20;;;;;;5053425;28;19920;-82
2022/03/24 01:54:39;;;;;;;;;;;4.20;99.30;;;;;;5031931;28;19921;-82
2022/03/24 01:57:06;;;;;;;;;;;4.20;99.60;;;;;;5021043;28;19922;-82
2022/03/24 01:59:34;;;;;;;;;;;4.10;99.50;;;;;;5048261;28;20215;-82
2022/03/24 02:02:01;;;;;;;;;;;4.20;99.70;;;;;;5030037;28;20031;-82
2022/03/24 02:04:30;;;;;;;;;;;4.10;99.90;;;;;;5026414;28;19921;-82
2022/03/24 02:06:57;;;;;;;;;;;4.20;99.90;;;;;;5043734;28;19925;-82
2022/03/24 02:09:25;;;;;;;;;;;4.20;99.90;;;;;;5046955;28;19921;-82
2022/03/24 02:11:52;;;;;;;;;;;4.20;99.90;;;;;;5046597;28;19951;-82
2022/03/24 02:14:19;;;;;;;;;;;4.30;99.90;;;;;;5030905;28;19925;-82
2022/03/24 02:16:47;;;;;;;;;;;4.20;99.90;;;;;;5046252;28;19990;-82
2022/03/24 02:19:15;;;;;;;;;;;4.10;99.90;;;;;;5033178;28;19921;-82
2022/03/24 02:21:42;;;;;;;;;;;4.20;99.90;;;;;;5047768;28;19980;-82
2022/03/24 02:24:12;;;;;;;;;;;4.10;99.90;;;;;;5030850;28;19925;-82
2022/03/24 02:26:40;;;;;;;;;;;4.20;99.90;;;;;;5044826;28;20023;-82
2022/03/24 02:29:07;;;;;;;;;;;4.00;99.90;;;;;;5031671;28;19931;-82
2022/03/24 02:31:34;;;;;;;;;;;3.90;99.90;;;;;;5038867;28;19928;-82
2022/03/24 02:36:43;;;;;;;;;;;3.90;99.90;;;;;;5028796;28;19925;-82
2022/03/24 02:39:12;;;;;;;;;;;3.80;99.90;;;;;;5024478;28;20011;-82
2022/03/24 02:41:45;;;;;;;;;;;3.80;99.90;;;;;;5030858;28;19937;-82
2022/03/24 02:44:14;;;;;;;;;;;3.90;99.90;;;;;;5031083;28;19925;-82
2022/03/24 02:46:41;;;;;;;;;;;4.20;99.90;;;;;;5026370;28;19929;-82
2022/03/24 02:49:08;;;;;;;;;;;3.70;99.90;;;;;;5035295;28;20000;-84
2022/03/24 02:51:36;;;;;;;;;;;3.70;99.90;;;;;;5050480;28;20335;-82
2022/03/24 02:54:03;;;;;;;;;;;3.90;99.90;;;;;;5034044;28;19921;-82
2022/03/24 02:56:31;;;;;;;;;;;3.60;99.90;;;;;;5034798;28;19986;-82
2022/03/24 02:58:58;;;;;;;;;;;3.50;99.90;;;;;;5041881;28;19912;-82
2022/03/24 03:01:25;;;;;;;;;;;3.50;99.90;;;;;;5035369;28;19925;-82
2022/03/24 03:03:52;;;;;;;;;;;3.40;99.90;;;;;;5038335;28;19929;-81
2022/03/24 03:06:19;;;;;;;;;;;3.50;99.90;;;;;;5036426;28;19929;-82
2022/03/24 03:08:46;;;;;;;;;;;3.50;99.90;;;;;;5034907;28;19940;-82
2022/03/24 03:11:13;;;;;;;;;;;3.60;99.90;;;;;;5035452;28;19921;-82
2022/03/24 03:13:41;;;;;;;59.57;29.37;;;3.50;99.90;;;;;;5049438;28;20213;-82
2022/03/24 03:16:08;;;;;;;57.80;28.67;;;3.40;99.90;;;;;;5035899;28;20238;-81
2022/03/24 03:18:35;;;;;;;56.87;28.90;;;3.50;99.90;;;;;;5034713;28;20304;-82
2022/03/24 03:21:02;;;;;;;57.70;28.53;;;3.40;99.90;;;;;;5024976;28;20219;-83
2022/03/24 03:23:29;;;;;;;57.53;29.80;;;3.50;99.90;;;;;;5035572;28;20202;-82
2022/03/24 03:25:56;;;;;;;60.27;29.80;;;3.30;99.90;;;;;;5048618;28;20248;-82
2022/03/24 03:28:23;;;;;;;58.30;28.30;;;3.30;99.90;;;;;;5034532;28;20208;-82
2022/03/24 03:30:52;;;;;;;64.73;29.53;;;3.30;99.90;;;;;;5029020;28;20227;-83
2022/03/24 03:33:18;;;;;;;65.33;30.97;;;3.40;99.90;;;;;;5033770;28;20235;-82
2022/03/24 03:35:45;;;;;;;58.23;29.47;;;3.30;99.90;;;;;;5035512;28;20232;-83
2022/03/24 03:38:12;;;;;;;58.90;29.30;;;3.30;99.90;;;;;;5034857;28;20648;-82
2022/03/24 03:40:39;;;;;;;56.03;27.73;;;3.00;99.90;;;;;;5045000;28;20326;-83
2022/03/24 03:43:08;;;;;;;56.73;28.00;;;3.50;99.90;;;;;;5033573;28;20275;-82
2022/03/24 03:45:35;;;;;;;58.50;29.87;;;3.20;99.90;;;;;;5049510;28;20235;-82
2022/03/24 03:48:06;;;;;;;61.67;29.07;;;3.20;99.90;;;;;;5033032;28;20298;-83
2022/03/24 03:50:36;;;;;;;64.30;30.13;;;3.10;99.90;;;;;;5034291;28;20207;-83
2022/03/24 03:53:04;;;;;;;65.47;29.80;;;3.10;99.90;;;;;;5034161;28;20378;-82
2022/03/24 03:55:31;;;;;;;61.90;28.47;;;3.30;99.90;;;;;;5042851;28;20234;-83
2022/03/24 03:57:58;;;;;;;55.10;28.33;;;2.90;99.90;;;;;;5037263;28;20242;-82
2022/03/24 04:03:11;;;;;;;55.07;28.43;;;3.00;99.90;;;;;;5030350;28;20296;-82
2022/03/24 04:05:38;;;;;;;51.30;26.95;;;2.90;99.90;;;;;;5051835;28;20566;-82
2022/03/24 04:08:09;;;;;;;56.67;30.57;;;2.90;99.90;;;;;;5051211;28;20219;-82
2022/03/24 04:10:36;;;;;;;58.57;28.57;;;2.90;99.90;;;;;;5028660;28;20207;-83
2022/03/24 04:13:03;;;;;;;57.63;28.43;;;2.80;99.90;;;;;;5053823;28;20224;-84
2022/03/24 04:15:31;;;;;;;56.40;28.47;;;2.80;99.90;;;;;;5033159;28;20251;-84
2022/03/24 04:17:58;;;;;;;61.50;28.57;;;3.20;99.90;;;;;;5057679;28;20218;-84
2022/03/24 04:20:26;;;;;;;59.67;28.07;;;2.80;99.90;;;;;;5046408;28;20216;-82
2022/03/24 04:22:54;;;;;;;57.53;28.37;;;2.80;99.90;;;;;;5037269;28;20191;-82
2022/03/24 04:25:22;;;;;;;58.30;29.90;;;2.70;99.90;;;;;;5035086;28;20239;-83
2022/03/24 04:27:50;;;;;;;55.40;27.90;;;2.70;99.90;;;;;;5028543;28;20211;-85
2022/03/24 04:30:18;;;;;;;59.17;28.33;;;2.70;99.90;;;;;;5038971;28;20287;-83
2022/03/24 04:32:47;;;;;;;52.63;28.30;;;2.70;99.90;;;;;;5047277;28;20337;-82
2022/03/24 04:35:14;;;;;;;69.00;30.17;;;2.60;99.90;;;;;;5047936;28;20240;-82
2022/03/24 04:37:44;;;;;;;60.37;29.00;;;2.60;99.90;;;;;;5033321;28;20262;-82
2022/03/24 04:40:12;;;;;;;54.40;27.90;;;2.60;99.90;;;;;;5032292;28;21072;-82
2022/03/24 04:42:40;;;;;;;59.57;26.80;;;2.60;99.90;;;;;;5053765;28;20196;-82
2022/03/24 04:45:09;;;;;;;56.53;27.57;;;2.60;99.90;;;;;;5035720;28;20204;-83
2022/03/24 04:47:36;;;;;;;57.17;28.97;;;2.60;99.90;;;;;;5028752;28;20322;-82
2022/03/24 04:50:04;;;;;;;60.93;30.03;;;2.50;99.90;;;;;;5048692;28;20216;-82
2022/03/24 04:52:31;;;;;;;64.60;30.57;;;2.90;99.90;;;;;;5045752;28;20277;-82
2022/03/24 04:54:59;;;;;;;64.60;30.47;;;2.50;99.90;;;;;;5036238;28;20205;-82
2022/03/24 04:57:27;;;;;;;60.03;28.63;;;2.50;99.90;;;;;;5037493;28;20203;-82
2022/03/24 04:59:53;;;;;;;63.50;29.90;;;2.50;99.90;;;;;;5051448;28;20369;-82
2022/03/24 05:02:20;;;;;;;66.70;30.73;;;2.50;99.90;;;;;;5038405;28;20249;-82
2022/03/24 05:04:47;;;;;;;61.90;29.67;;;2.40;99.90;;;;;;5037916;28;20207;-82
2022/03/24 05:07:14;;;;;;;68.03;29.27;;;2.50;99.90;;;;;;5034964;28;20241;-82
2022/03/24 05:09:41;;;;;;;67.73;29.97;;;2.40;99.90;;;;;;5034835;28;20206;-82
2022/03/24 05:12:10;;;;;;;69.00;30.90;;;2.50;99.90;;;;;;5041190;28;20191;-82
2022/03/24 05:14:37;;;;;;;71.80;30.50;;;2.50;99.90;;;;;;5042631;28;20226;-82
2022/03/24 05:17:06;;;;;;;62.07;28.70;;;2.50;99.90;;;;;;5040861;28;20332;-82
2022/03/24 05:19:34;;;;;;;66.77;31.17;;;2.50;99.90;;;;;;5032648;28;20789;-82
2022/03/24 05:22:01;;;;;;;74.47;31.90;;;3.50;99.90;;;;;;5033350;28;20208;-83
2022/03/24 05:24:29;;;;;;;71.40;31.73;;;2.50;99.90;;;;;;5053824;28;20211;-83
2022/03/24 05:26:56;;;;;;;67.00;31.63;;;2.40;99.90;;;;;;5052102;28;20261;-83
2022/03/24 05:29:35;;;;;;;64.57;28.90;;;1.30;99.90;;;;;;5069559;28;20198;-85
2022/03/24 05:32:11;;;;;;;65.87;30.17;;;2.50;99.90;;;;;;5053491;28;20209;-85
2022/03/24 05:34:53;;;;;;;69.57;29.43;;;1.80;99.90;;;;;;5038956;28;20233;-85
2022/03/24 05:40:11;;;;;;;65.53;29.57;;;2.80;99.90;;;;;;5032545;28;20197;-86
2022/03/24 05:42:46;;;;;;;82.47;32.20;;;2.50;99.90;;;;;;5032547;28;20235;-84
2022/03/24 05:45:22;;;;;;;71.73;29.97;;;2.50;99.90;;;;;;5033066;28;20218;-86
2022/03/24 05:47:55;;;;;;;66.60;29.70;;;2.40;99.90;;;;;;5033312;28;20191;-86
2022/03/24 05:50:46;;;;;;;58.90;28.37;;;2.60;99.90;;;;;;5035455;28;20179;-85
2022/03/24 05:53:18;;;;;;;62.53;27.40;;;3.40;99.90;;;;;;5072709;28;20222;-84
2022/03/24 05:55:46;;;;;;;60.27;28.53;;;2.70;99.90;;;;;;5090216;28;20234;-83
2022/03/24 05:58:13;;;;;;;62.10;27.83;;;2.70;99.90;;;;;;5072434;28;20192;-83
2022/03/24 06:00:42;;;;;;;65.90;29.90;;;2.80;99.90;;;;;;5059767;28;20175;-83
2022/03/24 06:03:09;;;;;;;67.83;29.70;;;2.90;99.90;;;;;;5068961;28;20219;-83
2022/03/24 06:05:40;;;;;;;62.63;29.87;;;3.00;99.90;;;;;;5068831;28;20227;-84
2022/03/24 06:08:09;;;;;;;66.63;30.50;;;3.60;99.90;;;;;;5057584;28;20348;-84
2022/03/24 06:10:36;;;;;;;67.00;30.97;;;3.40;99.90;;;;;;5048652;28;20234;-83
2022/03/24 06:13:03;;;;;;;66.70;31.37;;;3.70;99.90;;;;;;5037687;28;20270;-83
2022/03/24 06:15:30;;;;;;;64.20;31.93;;;4.10;99.90;;;;;;5035215;28;20690;-83
2022/03/24 06:17:58;;;;;;;72.30;34.57;;;4.60;99.90;;;;;;5027417;28;20265;-82
2022/03/24 06:20:25;;;;;;;58.03;32.13;;;5.20;99.90;;;;;;5023720;28;20190;-82
2022/03/24 06:22:53;;;;;;;;;;;5.90;99.90;;;;;;5048092;28;20053;-82
2022/03/24 06:25:20;;;;;;;;;;;7.20;99.90;;;;;;5030486;28;19935;-82
2022/03/24 06:27:48;;;;;;;;;;;7.30;99.90;;;;;;5047013;28;19931;-82
2022/03/24 06:30:15;;;;;;;;;;;8.10;99.90;;;;;;5028492;28;19921;-82
2022/03/24 06:32:42;;;;;;;;;;;8.90;99.90;;;;;;5030248;28;19932;-83
2022/03/24 06:35:11;;;;;;;;;;;10.20;99.90;;;;;;5029260;28;19920;-83
2022/03/24 06:37:40;;;;;;;;;;;10.20;99.90;;;;;;5026045;28;19939;-83
2022/03/24 06:40:07;;;;;;;;;;;10.80;99.90;;;;;;5026882;28;20054;-83
2022/03/24 06:42:34;;;;;;;;;;;11.40;99.90;;;;;;5028651;28;19982;-83
2022/03/24 06:45:00;;;;;;;;;;;12.10;99.90;;;;;;5028538;28;20285;-83
2022/03/24 06:47:27;;;;;;;;;;;12.70;99.90;;;;;;5030015;28;21119;-83
2022/03/24 06:49:54;;;;;;;;;;;13.10;99.90;;;;;;5023688;28;20260;-82
2022/03/24 06:52:22;;;;;;;;;;;13.90;99.90;;;;;;5036079;28;20230;-82
2022/03/24 06:54:49;;;;;;;27.97;18.50;;;14.40;99.90;;;;;;5049832;28;20404;-83
2022/03/24 06:57:17;;;;;;;30.80;19.87;;;14.90;99.90;;;;;;5032055;28;20709;-83
2022/03/24 06:59:44;;;;;;;33.03;19.37;;;15.40;99.90;;;;;;5033167;28;20232;-83
2022/03/24 07:02:11;;;;;;;29.50;19.53;;;15.80;99.90;;;;;;5031637;28;20214;-83
2022/03/24 07:04:38;;;;;;;26.93;19.63;;;16.20;99.90;;;;;;5036965;28;20201;-83
2022/03/24 07:07:05;;;;;;;30.23;20.37;;;16.60;99.90;;;;;;5052318;28;20221;-83
2022/03/24 07:09:35;;;;;;;30.83;21.80;;;17.10;99.50;;;;;;5040938;28;20632;-83
2022/03/24 07:12:02;;;;;;;28.17;20.83;;;17.40;98.00;;;;;;5036795;28;20280;-83
2022/03/24 07:14:29;;;;;;;30.57;21.10;;;17.60;97.20;;;;;;5031921;28;20286;-83
2022/03/24 07:16:56;;;;;;;31.40;21.07;;;18.00;96.90;;;;;;5044956;28;20245;-83
2022/03/24 07:19:23;;;;;;;28.33;20.77;;;18.30;96.30;;;;;;5020021;28;20237;-83
2022/03/24 07:21:50;;;;;;;31.27;21.70;;;18.60;94.80;;;;;;5032810;28;20303;-83
2022/03/24 07:24:16;;;;;;;;;;;18.90;95.10;;;;;;5032819;28;20279;-82
2022/03/24 07:26:46;;;;;;;36.40;21.70;;;19.20;94.50;;;;;;5030942;28;20415;-83
2022/03/24 07:29:13;;;;;;;35.67;23.20;;;19.70;94.00;;;;;;5024221;28;20714;-83
2022/03/24 07:31:41;;;;;;;32.63;22.23;;;19.90;93.10;;;;;;5028476;28;20297;-83
2022/03/24 07:34:08;;;;;;;33.23;22.00;;;20.10;93.00;;;;;;5045876;28;20217;-83
2022/03/24 07:36:35;;;;;;;33.60;22.13;;;20.30;92.50;;;;;;5059454;28;20229;-84
2022/03/24 07:39:04;;;;;;;35.87;23.77;;;20.50;92.10;;;;;;5049962;28;20175;-84
2022/03/24 07:41:32;;;;;;;;;;;20.80;91.40;;;;;;5045625;28;20220;-84
2022/03/24 07:44:00;;;;;;;;;;;21.00;90.70;;;;;;5048002;28;19961;-84
2022/03/24 07:46:27;;;;;;;;;;;21.20;90.70;;;;;;5055249;28;20289;-82
2022/03/24 07:48:54;;;;;;;34.50;24.43;;;21.40;90.20;;;;;;5054669;28;20014;-83
2022/03/24 07:51:21;;;;;;;36.10;24.03;;;21.70;89.70;;;;;;5054141;28;20219;-83
2022/03/24 07:54:00;;;;;;;37.57;25.70;;;21.90;89.20;;;;;;5050200;28;20246;-82
2022/03/24 07:56:28;;;;;;;44.70;26.40;;;22.20;88.80;;;;;;5036368;28;20223;-84
2022/03/24 07:58:56;;;;;;;38.17;25.50;;;22.30;87.30;;;;;;5035491;28;20299;-83
2022/03/24 08:01:29;;;;;;;33.87;25.40;;;22.70;87.00;;;;;;5033308;28;20239;-84
2022/03/24 08:03:58;;;;;;;37.57;26.53;;;22.80;83.40;;;;;;5049004;28;20222;-83
2022/03/24 08:06:25;;;;;;;37.93;27.57;;;22.80;82.80;;;;;;5032873;28;20239;-82
2022/03/24 08:08:52;;;;;;;36.57;25.87;;;22.90;82.90;;;;;;5032836;28;20262;-83
2022/03/24 08:11:19;;;;;;;38.07;26.83;;;23.10;81.70;;;;;;5037103;28;20290;-83
2022/03/24 08:13:50;;;;;;;37.73;26.47;;;23.20;80.60;;;;;;5040378;28;20226;-83
2022/03/24 08:16:17;;;;;;;33.17;25.97;;;23.40;80.50;;;;;;5050142;28;20306;-83
2022/03/24 08:18:45;;;;;;;37.77;25.97;;;23.50;80.10;;;;;;5031023;28;20763;-83
2022/03/24 08:21:12;;;;;;;36.63;26.07;;;23.50;77.50;;;;;;5033173;28;20203;-82
2022/03/24 08:23:39;;;;;;;34.27;26.53;;;23.50;78.30;;;;;;5022060;28;20209;-83
2022/03/24 08:26:06;;;;;;;34.53;26.80;;;23.60;78.00;;;;;;5024295;28;20237;-82
2022/03/24 08:28:34;;;;;;;38.70;26.07;;;23.70;77.30;;;;;;5048686;28;20216;-82
2022/03/24 08:31:00;;;;;;;37.43;27.60;;;23.70;77.80;;;;;;5049925;28;20251;-83
2022/03/24 08:33:28;;;;;;;35.13;28.00;;;23.70;76.90;;;;;;5040473;28;20292;-83
2022/03/24 08:36:07;;;;;;;37.00;29.27;;;23.70;75.60;;;;;;5032001;28;20237;-84
2022/03/24 08:38:37;;;;;;;34.90;28.27;;;23.70;75.30;;;;;;5022024;28;20209;-83
2022/03/24 08:41:04;;;;;;;37.33;28.40;;;23.50;75.00;;;;;;5031300;28;20221;-83
2022/03/24 08:43:33;;;;;;;40.33;28.60;;;23.30;74.20;;;;;;5033022;28;20224;-83
2022/03/24 08:46:00;;;;;;;36.70;27.37;;;23.10;74.80;;;;;;5031050;28;20234;-83
2022/03/24 08:48:27;;;;;;;38.60;28.43;;;22.90;74.90;;;;;;5027042;28;20212;-83
2022/03/24 08:50:55;;;;;;;43.03;29.03;;;22.90;75.10;;;;;;5023800;28;20224;-83
2022/03/24 08:53:23;;;;;;;36.97;27.23;;;23.00;75.00;;;;;;5029629;28;20631;-83
2022/03/24 08:55:51;;;;;;;32.88;28.15;;;23.00;73.90;;;;;;5028582;28;20253;-83
2022/03/24 08:58:18;;;;;;;38.70;28.95;;;23.00;75.00;;;;;;5026644;28;20206;-84
2022/03/24 09:00:46;;;;;;;35.95;29.02;;;22.90;74.20;;;;;;5043725;28;20602;-83
2022/03/24 09:03:13;;;;;;;38.22;28.17;;;22.90;74.00;;;;;;5032344;28;20210;-84
2022/03/24 09:05:40;;;;;;;42.85;29.65;;;22.70;73.40;;;;;;5031776;28;20262;-83
2022/03/24 09:08:07;;;;;;;37.05;28.58;;;22.50;72.70;;;;;;5025629;28;20228;-84
2022/03/24 09:10:35;;;;;;;37.07;29.10;;;22.40;74.00;;;;;;5047432;28;20248;-84
2022/03/24 09:13:02;;;;;;;39.28;28.80;;;22.30;73.70;;;;;;5038193;28;20206;-84
2022/03/24 09:15:29;;;;;;;39.25;28.38;;;22.30;73.80;;;;;;5028869;28;20470;-83
2022/03/24 09:17:58;;;;;;;38.53;29.70;;;22.20;73.40;;;;;;5031231;28;20250;-84
2022/03/24 09:20:26;;;;;;;42.00;29.90;;;22.00;73.00;;;;;;5026236;28;20263;-84
2022/03/24 09:22:53;;;;;;;38.72;29.65;;;21.80;72.90;;;;;;5019446;28;20217;-83
2022/03/24 09:25:20;;;;;;;43.75;30.30;;;21.50;73.20;;;;;;5023039;28;20206;-84
2022/03/24 09:27:49;;;;;;;38.83;29.70;;;21.60;72.70;;;;;;5018429;28;20245;-84
2022/03/24 09:30:18;;;;;;;43.83;28.80;;;21.40;72.80;;;;;;5020209;28;20216;-84
2022/03/24 09:32:46;;;;;;;41.90;30.20;;;21.00;72.00;;;;;;5022969;28;20263;-84
2022/03/24 09:35:13;;;;;;;42.43;30.00;;;19.80;70.50;;;;;;5027007;28;20231;-83
2022/03/24 09:37:41;;;;;;;43.20;29.80;;;19.80;71.10;;;;;;5033926;28;20270;-83
2022/03/24 09:40:11;;;;;;;44.23;29.07;;;19.30;71.60;;;;;;5034275;28;20763;-83
2022/03/24 09:42:39;;;;;;;43.33;29.37;;;18.90;72.20;;;;;;5023036;28;20201;-83
2022/03/24 09:45:11;;;;;;;44.60;29.13;;;18.60;72.40;;;;;;5037268;28;20669;-84
2022/03/24 09:47:39;;;;;;;51.47;29.90;;;18.30;72.80;;;;;;5025002;28;20213;-83
2022/03/24 09:50:07;;;;;;;47.33;29.60;;;18.10;73.40;;;;;;5025616;28;20345;-83
2022/03/24 09:52:34;;;;;;;50.37;29.87;;;17.90;73.20;;;;;;5023190;28;20214;-83
2022/03/24 09:55:01;;;;;;;46.00;28.93;;;17.80;73.30;;;;;;5027948;28;20221;-83
2022/03/24 09:57:28;;;;;;;49.80;30.13;;;17.70;73.50;;;;;;5030964;28;20229;-83
2022/03/24 09:59:55;;;;;;;49.53;29.30;;;17.70;74.40;;;;;;5030369;28;20579;-83
2022/03/24 10:02:24;;;;;;;45.77;30.03;;;17.60;74.30;;;;;;5030171;28;20581;-83
2022/03/24 10:04:52;;;;;;;44.53;29.07;;;17.50;74.30;;;;;;5026412;28;20212;-83
2022/03/24 10:07:23;;;;;;;41.37;27.53;;;17.20;74.00;;;;;;5030596;28;20307;-83
2022/03/24 10:09:51;;;;;;;46.37;29.17;;;17.60;73.70;;;;;;5046462;28;20264;-83
2022/03/24 10:12:21;;;;;;;48.57;29.70;;;17.70;73.40;;;;;;5030628;28;20213;-85
2022/03/24 10:14:58;;;;;;;43.03;28.70;;;17.80;73.60;;;;;;5021886;28;20234;-85
2022/03/24 10:17:26;;;;;;;47.47;29.20;;;17.90;72.60;;;;;;5033283;28;20707;-85
2022/03/24 10:19:58;;;;;;;41.93;27.97;;;18.00;72.60;;;;;;5051457;28;20670;-85
2022/03/24 10:22:25;;;;;;;46.00;27.93;;;18.10;72.20;;;;;;5044887;28;20775;-85
2022/03/24 10:24:53;;;;;;;42.97;27.77;;;18.10;71.90;;;;;;5030015;28;20229;-85
2022/03/24 10:27:26;;;;;;;45.53;27.93;;;18.10;71.10;;;;;;5028076;28;20956;-85
2022/03/24 10:29:55;;;;;;;46.03;28.77;;;18.10;71.10;;;;;;5040061;28;20765;-85
2022/03/24 10:32:29;;;;;;;41.73;26.37;;;18.10;70.50;;;;;;5034538;28;20316;-85
2022/03/24 10:34:58;;;;;;;47.27;29.67;;;18.20;71.30;;;;;;5027321;28;20225;-84
2022/03/24 10:37:27;;;;;;;44.10;28.37;;;18.30;70.90;;;;;;5029315;28;20312;-84
2022/03/24 10:39:59;;;;;;;41.07;26.20;;;18.40;70.40;;;;;;5027044;28;20707;-84
2022/03/24 10:42:29;;;;;;;42.07;26.53;;;18.50;70.20;;;;;;5018653;28;20284;-84
2022/03/24 10:45:14;;;;;;;45.17;28.73;;;18.50;69.70;;;;;;5045667;28;20201;-83
2022/03/24 10:47:50;;;;;;;48.23;28.43;;;18.60;69.60;;;;;;5027023;28;20213;-84
2022/03/24 10:50:38;;;;;;;41.30;27.80;;;18.50;69.40;;;;;;5026007;28;20293;-84
2022/03/24 10:53:07;;;;;;;46.33;29.20;;;18.70;70.00;;;;;;5018026;28;20233;-84
2022/03/24 10:55:53;;;;;;;46.80;28.47;;;18.80;70.40;;;;;;5043009;28;20255;-85
2022/03/24 10:58:23;;;;;;;44.53;27.93;;;19.10;70.40;;;;;;5040835;28;20210;-85
2022/03/24 11:00:52;;;;;;;44.20;28.83;;;19.20;69.70;;;;;;5030342;28;21032;-83
2022/03/24 11:03:22;;;;;;;44.53;27.57;;;19.20;68.60;;;;;;5026950;28;20807;-85
2022/03/24 11:05:49;;;;;;;48.47;28.90;;;19.20;67.80;;;;;;5025733;28;20265;-83
2022/03/24 11:08:17;;;;;;;44.67;28.23;;;19.30;67.20;;;;;;5030657;28;20213;-84
2022/03/24 11:10:46;;;;;;;37.33;25.60;;;19.20;67.50;;;;;;5029298;28;20724;-84
2022/03/24 11:13:22;;;;;;;41.67;26.80;;;19.30;67.20;;;;;;5035695;28;20216;-85
2022/03/24 11:15:52;;;;;;;39.80;26.93;;;19.30;66.40;;;;;;5022018;28;20307;-84
2022/03/24 11:18:22;;;;;;;39.30;28.20;;;19.30;66.50;;;;;;5027132;28;20340;-84
2022/03/24 11:20:50;;;;;;;38.83;26.97;;;19.30;66.50;;;;;;5022106;28;20221;-84
2022/03/24 11:23:35;;;;;;;39.87;26.50;;;19.40;66.90;;;;;;5028566;28;20268;-84
2022/03/24 11:26:03;;;;;;;45.53;28.77;;;19.60;66.30;;;;;;5010915;28;20893;-84
2022/03/24 11:28:33;;;;;;;46.20;29.33;;;19.70;65.90;;;;;;5022192;28;20217;-84
2022/03/24 11:31:04;;;;;;;46.07;27.70;;;19.80;66.30;;;;;;5012991;28;20889;-83
2022/03/24 11:33:39;;;;;;;42.33;28.07;;;19.90;66.60;;;;;;5021509;28;20276;-84
2022/03/24 11:36:07;;;;;;;42.63;27.30;;;20.20;66.30;;;;;;5012980;28;20463;-84
2022/03/24 11:38:34;;;;;;;38.77;27.30;;;20.30;65.60;;;;;;5013580;28;20207;-83
2022/03/24 11:41:03;;;;;;;41.67;27.70;;;20.50;65.10;;;;;;5015562;28;20290;-84
2022/03/24 11:43:31;;;;;;;34.73;25.57;;;20.70;64.60;;;;;;5022866;28;20809;-84
2022/03/24 11:46:02;;;;;;;37.40;26.83;;;20.80;64.90;;;;;;5025534;28;20743;-85
2022/03/24 11:48:35;;;;;;;37.93;25.10;;;20.90;63.00;;;;;;5023462;28;20210;-84
2022/03/24 11:51:07;;;;;;;42.37;28.63;;;20.80;62.80;;;;;;5046878;28;20289;-85
2022/03/24 11:53:39;;;;;;;38.33;27.47;;;20.80;62.80;;;;;;5032326;28;20212;-85
2022/03/24 11:56:13;;;;;;;33.33;22.87;;;20.80;62.80;;;;;;5037901;28;20301;-84
2022/03/24 11:59:17;;;;;;;37.53;23.43;;;21.00;61.80;;;;;;5031037;28;20201;-84
2022/03/24 12:01:44;;;;;;;41.40;25.53;;;20.90;59.50;;;;;;5030258;28;20934;-86
2022/03/24 12:04:14;;;;;;;38.93;25.30;;;20.80;60.20;;;;;;5032516;28;20214;-84
2022/03/24 12:06:55;;;;;;;35.40;22.47;;;20.90;60.00;;;;;;5033404;28;20577;-85
2022/03/24 12:09:25;;;;;;;34.77;23.23;;;21.00;60.10;;;;;;5035162;28;20206;-85
2022/03/24 12:11:53;;;;;;;32.83;23.20;;;21.10;59.80;;;;;;5048816;28;20221;-84
2022/03/24 12:14:36;;;;;;;34.43;23.87;;;21.30;59.40;;;;;;5038068;28;20210;-84
2022/03/24 12:17:07;;;;;;;36.90;24.53;;;21.40;59.30;;;;;;5035653;28;20293;-83
2022/03/24 12:19:47;;;;;;;36.23;24.43;;;21.60;59.50;;;;;;5037479;28;20223;-85
2022/03/24 12:22:39;;;;;;;39.30;23.80;;;21.80;59.60;;;;;;5041899;28;20216;-84
2022/03/24 12:25:25;;;;;;;36.60;25.17;;;21.80;59.00;;;;;;5040258;28;20267;-84
2022/03/24 12:28:04;;;;;;;35.67;25.33;;;21.80;58.90;;;;;;5033899;28;20254;-83
2022/03/24 12:30:53;;;;;;;34.93;24.23;;;21.90;58.80;;;;;;5038298;28;20222;-83
2022/03/24 12:33:39;;;;;;;36.83;26.13;;;22.00;59.30;;;;;;5029251;28;20220;-84
2022/03/24 12:36:13;;;;;;;36.10;25.00;;;22.20;58.80;;;;;;5062522;28;20327;-83
2022/03/24 12:38:49;;;;;;;40.00;26.13;;;22.30;59.00;;;;;;5042870;28;20279;-83
2022/03/24 12:41:24;;;;;;;36.33;25.00;;;22.50;58.40;;;;;;5043334;28;20258;-83
2022/03/24 12:44:09;;;;;;;35.37;25.43;;;22.50;57.70;;;;;;5055931;28;20224;-84
2022/03/24 12:46:45;;;;;;;35.57;25.53;;;22.50;57.60;;;;;;5031554;28;20262;-84
2022/03/24 12:49:32;;;;;;;37.03;26.13;;;22.40;57.80;;;;;;5038638;28;20216;-83
2022/03/24 12:52:06;;;;;;;35.60;25.40;;;22.40;58.20;;;;;;5056086;28;20366;-84
2022/03/24 12:54:45;;;;;;;35.67;24.73;;;22.50;57.90;;;;;;5039282;28;20208;-84
2022/03/24 12:57:24;;;;;;;33.57;23.60;;;22.60;57.60;;;;;;5051420;28;20227;-84
2022/03/24 12:59:51;;;;;;;38.60;27.03;;;22.70;57.10;;;;;;5056910;28;20221;-84
2022/03/24 13:02:19;;;;;;;37.83;27.20;;;22.70;56.40;;;;;;5040872;28;20199;-85
2022/03/24 13:04:50;;;;;;;38.73;26.87;;;23.20;57.70;;;;;;5053560;28;20404;-84
2022/03/24 13:07:26;;;;;;;38.67;26.00;;;22.50;56.50;;;;;;5067005;28;20247;-84
2022/03/24 13:10:10;;;;;;;36.73;25.47;;;22.70;57.80;;;;;;5055494;28;20218;-86
2022/03/24 13:12:38;;;;;;;34.40;24.93;;;22.80;57.50;;;;;;5058605;28;20223;-85
2022/03/24 13:15:07;;;;;;;38.87;25.47;;;22.80;57.30;;;;;;5040707;28;20216;-85
2022/03/24 13:17:35;;;;;;;37.77;25.97;;;22.70;57.00;;;;;;5025138;28;20327;-85
2022/03/24 13:20:04;;;;;;;38.07;26.67;;;22.60;57.00;;;;;;5031376;28;20655;-84
2022/03/24 13:22:34;;;;;;;36.80;24.90;;;22.80;56.60;;;;;;5032733;28;20223;-84